Time;durP1;ratioP1;P1;durP2;ratioP2;P2;SDS_P1;SDS_P2;PMS_P1;PMS_P2;Temp;Humidity;BMP_temperature;BMP_pressure;BME280_temperature;BME280_humidity;BME280_pressure;Samples;Min_cycle;Max_cycle;Signal;HPM_P1;HPM_P2
2021/11/01 00:00:36;;;;;;;2;1.5;;;;;;;10.75;68.88184;927.0464;;;;
2021/11/01 00:03:09;;;;;;;4.3;2.6;;;;;;;10.6;69.7832;926.9768;;;;
2021/11/01 00:05:34;;;;;;;11.4;4.7;;;;;;;10.53;70.39941;926.9535;;;;
2021/11/01 00:08:41;;;;;;;3.4;2.2;;;;;;;10.39;71.07227;926.8773;;;;
2021/11/01 00:11:06;;;;;;;19.5;6.3;;;;;;;10.05;72.05469;926.9358;;;;
2021/11/01 00:13:31;;;;;;;2.9;1.7;;;;;;;9.95;72.47168;926.8591;;;;
2021/11/01 00:15:56;;;;;;;3.1;1.6;;;;;;;10.05;72.08887;926.9231;;;;
2021/11/01 00:18:21;;;;;;;2.8;1.5;;;;;;;10;72.28711;926.9231;;;;
2021/11/01 00:20:48;;;;;;;1.8;1.6;;;;;;;9.96;72.46289;926.913;;;;
2021/11/01 00:23:13;;;;;;;2;1.5;;;;;;;10.01;72.19824;926.843;;;;
2021/11/01 00:25:38;;;;;;;3.5;1.9;;;;;;;9.98;73.03613;926.8557;;;;
2021/11/01 00:28:05;;;;;;;6.4;2.8;;;;;;;10;72.70898;926.7975;;;;
2021/11/01 00:30:29;;;;;;;2.5;1.6;;;;;;;9.88;72.77832;926.8087;;;;
2021/11/01 00:33:08;;;;;;;3;2;;;;;;;9.88;73.06348;926.796;;;;
2021/11/01 00:35:35;;;;;;;2.8;1.7;;;;;;;9.89;72.74707;926.7871;;;;
2021/11/01 00:38:00;;;;;;;1.5;1.4;;;;;;;9.94;72.5498;926.7447;;;;
2021/11/01 00:40:25;;;;;;;3.1;1.7;;;;;;;9.85;72.68262;926.7818;;;;
2021/11/01 00:42:50;;;;;;;4.3;2.7;;;;;;;9.72;73.21973;926.7243;;;;
2021/11/01 00:45:15;;;;;;;2.1;1.6;;;;;;;9.77;72.86328;926.7455;;;;
2021/11/01 00:47:40;;;;;;;2.5;1.6;;;;;;;9.82;72.58691;926.7216;;;;
2021/11/01 00:50:06;;;;;;;3.7;2;;;;;;;9.78;73.32227;926.72;;;;
2021/11/01 00:52:31;;;;;;;2.8;1.9;;;;;;;9.72;73.27734;926.7378;;;;
2021/11/01 00:55:01;;;;;;;2.4;1.7;;;;;;;9.68;73.38281;926.7134;;;;
2021/11/01 00:57:21;;;;;;;3.3;2.1;;;;;;;9.48;74.47656;926.6777;;;;
2021/11/01 00:59:47;;;;;;;2.7;2;;;;;;;9.49;74.36426;926.6824;;;;
2021/11/01 01:02:12;;;;;;;2.9;1.8;;;;;;;9.46;74.46289;926.7112;;;;
2021/11/01 01:04:37;;;;;;;2.2;1.8;;;;;;;9.45;74.34668;926.7391;;;;
2021/11/01 01:07:05;;;;;;;2.6;2;;;;;;;9.44;74.20898;926.6525;;;;
2021/11/01 01:09:28;;;;;;;3.2;2.1;;;;;;;9.41;74.7959;926.7075;;;;
2021/11/01 01:11:56;;;;;;;4.4;2.1;;;;;;;9.43;74.65137;926.6573;;;;
2021/11/01 01:14:26;;;;;;;3;1.9;;;;;;;9.47;74.24805;926.6889;;;;
2021/11/01 01:16:46;;;;;;;3.5;2.2;;;;;;;9.23;75.26563;926.5984;;;;
2021/11/01 01:19:19;;;;;;;2.4;1.8;;;;;;;9.12;75.5752;926.5796;;;;
2021/11/01 01:24:01;;;;;;;2.4;1.5;;;;;;;9.09;75.75391;926.5257;;;;
2021/11/01 01:26:30;;;;;;;2.9;1.9;;;;;;;9.02;75.78516;926.6284;;;;
2021/11/01 01:28:55;;;;;;;2.4;1.5;;;;;;;9.11;75.44824;926.4907;;;;
2021/11/01 01:31:21;;;;;;;2.4;1.7;;;;;;;8.84;76.26563;926.6161;;;;
2021/11/01 01:33:46;;;;;;;3;1.5;;;;;;;8.94;76;926.5212;;;;
2021/11/01 01:36:22;;;;;;;1.6;1.5;;;;;;;8.95;75.94531;926.537;;;;
2021/11/01 01:38:49;;;;;;;2.1;1.8;;;;;;;9.07;75.46484;926.4027;;;;
2021/11/01 01:41:38;;;;;;;2.5;1.6;;;;;;;9.11;75.08398;926.4009;;;;
2021/11/01 01:44:03;;;;;;;2.1;1.2;;;;;;;9.14;75.03418;926.3889;;;;
2021/11/01 01:46:31;;;;;;;2;1.6;;;;;;;8.99;75.60059;926.3552;;;;
2021/11/01 01:48:56;;;;;;;2.2;1.5;;;;;;;9.11;75.07324;926.3359;;;;
2021/11/01 01:51:21;;;;;;;2;1.5;;;;;;;8.98;75.57422;926.2393;;;;
2021/11/01 01:53:47;;;;;;;2.4;1.7;;;;;;;9.1;75.07129;926.3184;;;;
2021/11/01 01:58:58;;;;;;;2.6;1.8;;;;;;;8.96;75.52539;926.2656;;;;
2021/11/01 02:01:08;;;;;;;2.8;2;;;;;;;8.88;75.94336;926.2953;;;;
2021/11/01 02:03:30;;;;;;;2.3;1.5;;;;;;;8.84;75.90332;926.2787;;;;
2021/11/01 02:05:57;;;;;;;2.3;1.6;;;;;;;8.87;75.7832;926.2143;;;;
2021/11/01 02:08:22;;;;;;;2.8;1.8;;;;;;;8.88;75.64844;926.1889;;;;
2021/11/01 02:10:47;;;;;;;2.4;1.7;;;;;;;8.61;76.86035;926.1298;;;;
2021/11/01 02:13:12;;;;;;;2;1.6;;;;;;;8.55;77.18066;926.1465;;;;
2021/11/01 02:15:46;;;;;;;3.3;1.6;;;;;;;8.43;77.71582;926.1414;;;;
2021/11/01 02:18:11;;;;;;;3.1;1.5;;;;;;;8.48;77.77148;926.1475;;;;
2021/11/01 02:20:37;;;;;;;2.2;1.4;;;;;;;8.54;77.75879;926.1426;;;;
2021/11/01 02:23:02;;;;;;;2.6;1.4;;;;;;;8.56;77.63867;926.1164;;;;
2021/11/01 02:25:27;;;;;;;2.8;1.9;;;;;;;8.64;77.40137;926.2085;;;;
2021/11/01 02:31:50;;;;;;;2.5;2.1;;;;;;;8.51;77.90137;926.1609;;;;
2021/11/01 02:34:15;;;;;;;2.4;1.6;;;;;;;8.5;78.1709;926.1785;;;;
2021/11/01 02:36:42;;;;;;;3.7;2;;;;;;;8.46;77.93848;926.1897;;;;
2021/11/01 02:39:07;;;;;;;3.4;2;;;;;;;8.54;77.66895;926.1196;;;;
2021/11/01 03:52:14;;;;;;;3;1.8;;;;;;;8.02;79.73145;925.5078;;;;
2021/11/01 03:54:26;;;;;;;2.9;1.7;;;;;;;7.94;80.01172;925.5274;;;;
2021/11/01 03:56:58;;;;;;;2.5;1.9;;;;;;;7.82;80.94043;925.4658;;;;
2021/11/01 03:59:29;;;;;;;3.2;1.9;;;;;;;7.75;81.03125;925.5154;;;;
2021/11/01 04:02:44;;;;;;;2.5;2.1;;;;;;;7.84;80.98047;925.5411;;;;
2021/11/01 04:05:09;;;;;;;2.4;1.8;;;;;;;7.87;80.48633;925.5323;;;;
2021/11/01 04:07:41;;;;;;;2.8;1.7;;;;;;;7.81;80.56445;925.5419;;;;
2021/11/01 04:10:14;;;;;;;2.3;1.8;;;;;;;7.84;80.26563;925.4959;;;;
2021/11/01 04:12:39;;;;;;;4.4;1.6;;;;;;;7.93;80.08887;925.3824;;;;
2021/11/01 04:15:10;;;;;;;3.6;2;;;;;;;8.06;79.25;925.4364;;;;
2021/11/01 04:17:41;;;;;;;2.8;1.8;;;;;;;8.18;78.58984;925.4797;;;;
2021/11/01 04:20:53;;;;;;;2.2;1.7;;;;;;;8.19;78.16211;925.4844;;;;
2021/11/01 04:23:17;;;;;;;2;1.8;;;;;;;8.13;78.97754;925.4235;;;;
2021/11/01 04:25:46;;;;;;;2.7;1.9;;;;;;;8.15;78.64063;925.3965;;;;
2021/11/01 04:28:11;;;;;;;2.2;1.6;;;;;;;8.13;78.35449;925.3633;;;;
2021/11/01 04:30:41;;;;;;;2.3;1.8;;;;;;;7.87;79.19238;925.442;;;;
2021/11/01 04:33:04;;;;;;;2;1.5;;;;;;;7.76;80.15723;925.4814;;;;
2021/11/01 04:35:36;;;;;;;2.4;1.7;;;;;;;7.82;80.19336;925.4388;;;;
2021/11/01 04:38:03;;;;;;;3.9;1.5;;;;;;;7.86;79.65625;925.4166;;;;
2021/11/01 04:40:39;;;;;;;2.5;1.8;;;;;;;7.89;79.55859;925.4903;;;;
2021/11/01 04:43:09;;;;;;;2.1;1.7;;;;;;;7.73;80.70996;925.4648;;;;
2021/11/01 04:53:04;;;;;;;2.7;2;;;;;;;7.93;79.60156;925.552;;;;
2021/11/01 04:55:22;;;;;;;2.7;1.9;;;;;;;7.92;79.48438;925.5298;;;;
2021/11/01 04:57:46;;;;;;;2.8;2;;;;;;;7.97;79.16309;925.5923;;;;
2021/11/01 05:00:16;;;;;;;3.2;2;;;;;;;7.84;79.91309;925.6044;;;;
2021/11/01 05:02:45;;;;;;;3;2;;;;;;;7.7;80.62402;925.6685;;;;
2021/11/01 05:06:28;;;;;;;3.7;2.3;;;;;;;7.73;80.65332;925.6042;;;;
2021/11/01 05:09:00;;;;;;;2.2;1.9;;;;;;;7.74;80.92578;925.6042;;;;
2021/11/01 05:11:29;;;;;;;3.1;2;;;;;;;7.75;80.64551;925.5939;;;;
2021/11/01 05:13:47;;;;;;;4;2.3;;;;;;;7.75;80.70215;925.5979;;;;
2021/11/01 05:16:23;;;;;;;3;2.2;;;;;;;7.64;81.20313;925.5298;;;;
2021/11/01 05:18:51;;;;;;;3.9;1.9;;;;;;;7.76;81.08984;925.5067;;;;
2021/11/01 05:21:20;;;;;;;3.1;1.6;;;;;;;7.89;80.70508;925.503;;;;
2021/11/01 05:23:39;;;;;;;2;1.6;;;;;;;7.93;80.80371;925.4601;;;;
2021/11/01 05:26:04;;;;;;;4;1.8;;;;;;;8.09;79.83398;925.4568;;;;
2021/11/01 05:28:40;;;;;;;4.9;1.6;;;;;;;8.23;78.80469;925.4458;;;;
2021/11/01 05:30:55;;;;;;;2.6;1.5;;;;;;;8.45;77.53906;925.4369;;;;
2021/11/01 05:33:36;;;;;;;3.1;2.1;;;;;;;8.69;76.49023;925.3973;;;;
2021/11/01 05:35:42;;;;;;;3.5;2.9;;;;;;;8.91;75.4834;925.5251;;;;
2021/11/01 05:38:10;;;;;;;4.9;2.5;;;;;;;8.97;75.0625;925.5486;;;;
2021/11/01 05:40:36;;;;;;;3.3;2.5;;;;;;;9.01;74.94238;925.5064;;;;
2021/11/01 05:43:01;;;;;;;2;1.7;;;;;;;8.87;75.75977;925.4683;;;;
2021/11/01 05:45:27;;;;;;;2.4;1.8;;;;;;;8.85;75.42676;925.485;;;;
2021/11/01 05:47:57;;;;;;;3.6;2.3;;;;;;;8.59;75.9043;925.5316;;;;
2021/11/01 05:50:21;;;;;;;4.8;3.5;;;;;;;8.51;76.48047;925.5945;;;;
2021/11/01 05:53:14;;;;;;;10.4;6.1;;;;;;;8.35;77.51953;925.6622;;;;
2021/11/01 05:55:45;;;;;;;8.1;4.8;;;;;;;8.45;77.54883;925.7424;;;;
2021/11/01 05:58:10;;;;;;;8.3;4.6;;;;;;;8.49;77.33984;925.7644;;;;
2021/11/01 06:03:04;;;;;;;9.4;5.2;;;;;;;8.34;77.6543;925.7701;;;;
2021/11/01 06:05:42;;;;;;;9.7;6;;;;;;;8.27;77.9707;925.6978;;;;
2021/11/01 06:08:18;;;;;;;6.9;4.5;;;;;;;8.25;78.22852;925.7605;;;;
2021/11/01 06:10:38;;;;;;;6.6;3.6;;;;;;;8.33;78.32129;925.7809;;;;
2021/11/01 06:15:17;;;;;;;8;4.3;;;;;;;8.5;77.53418;925.9135;;;;
2021/11/01 06:17:42;;;;;;;16.7;7.9;;;;;;;8.5;77.60449;925.9246;;;;
2021/11/01 06:20:12;;;;;;;8.6;4.6;;;;;;;8.48;77.70117;925.9413;;;;
2021/11/01 06:22:36;;;;;;;4.3;2.4;;;;;;;8.65;77.4043;926.0228;;;;
2021/11/01 06:25:05;;;;;;;4.8;2;;;;;;;8.8;76.9873;926.0762;;;;
2021/11/01 06:27:28;;;;;;;3.2;1.6;;;;;;;8.99;76.20215;926.1353;;;;
2021/11/01 06:30:09;;;;;;;2.6;1.9;;;;;;;9.11;75.86035;926.0889;;;;
2021/11/01 06:32:31;;;;;;;2.5;2;;;;;;;9.27;75.47754;926.2338;;;;
2021/11/01 06:39:51;;;;;;;1.9;1.6;;;;;;;9.7;74.73047;926.215;;;;
2021/11/01 06:42:17;;;;;;;3.4;1.5;;;;;;;9.75;73.99902;926.1813;;;;
2021/11/01 06:44:42;;;;;;;2.9;1.7;;;;;;;9.97;73.12402;926.2045;;;;
2021/11/01 06:51:59;;;;;;;3.2;1.8;;;;;;;10.54;73.37109;926.4161;;;;
2021/11/01 06:56:46;;;;;;;2.2;1.6;;;;;;;10.76;70.56348;926.497;;;;
2021/11/01 07:16:13;;;;;;;9.2;5.8;;;;;;;11.1;67.74805;926.7305;;;;
2021/11/01 07:18:41;;;;;;;8.1;5.1;;;;;;;10.58;69.42773;926.8296;;;;
2021/11/01 07:21:15;;;;;;;6.6;4.3;;;;;;;10.56;69.34277;926.8593;;;;
2021/11/01 07:23:53;;;;;;;5.7;4.4;;;;;;;10.82;69.04102;926.8407;;;;
2021/11/01 07:38:09;;;;;;;5.4;3.8;;;;;;;11.8;66.55371;926.745;;;;
2021/11/01 07:38:39;;;;;;;4.9;3.4;;;;;;;12.15;65.51855;926.7277;;;;
2021/11/01 08:22:45;;;;;;;1.6;1.1;;;;;;;15.66;55.29199;926.8427;;;;
2021/11/01 08:24:45;;;;;;;4;1.8;;;;;;;14.93;58.56641;926.9373;;;;
2021/11/01 08:29:31;;;;;;;3.5;1.9;;;;;;;14.66;56.53711;926.8764;;;;
2021/11/01 08:36:51;;;;;;;1.6;1.4;;;;;;;14.4;57.60938;926.8953;;;;
2021/11/01 08:39:24;;;;;;;1.8;1;;;;;;;14.36;57.8584;926.8722;;;;
2021/11/01 08:41:49;;;;;;;1.2;1.1;;;;;;;14.49;57.62109;926.9291;;;;
2021/11/01 08:44:28;;;;;;;2.7;1;;;;;;;14.41;58.1748;926.9905;;;;
2021/11/01 08:48:53;;;;;;;1.9;1.2;;;;;;;14.29;59.56445;926.942;;;;
2021/11/01 09:03:25;;;;;;;1.9;1.3;;;;;;;13.32;67.46484;927.0857;;;;
2021/11/01 09:05:58;;;;;;;1.9;1.7;;;;;;;12.95;69.52051;927.0988;;;;
2021/11/01 09:08:30;;;;;;;1.7;1.5;;;;;;;12.93;70.36719;927.0097;;;;
2021/11/01 09:20:17;;;;;;;1.9;1.7;;;;;;;13.11;71.94531;927.2522;;;;
2021/11/01 09:25:15;;;;;;;3.2;2.5;;;;;;;12.92;73.44043;927.2257;;;;
2021/11/01 09:27:36;;;;;;;2.6;1.8;;;;;;;13;74.30566;927.2386;;;;
2021/11/01 09:30:27;;;;;;;2.3;2.1;;;;;;;12.95;75.30664;927.2267;;;;
2021/11/01 09:35:58;;;;;;;2.2;2;;;;;;;12.85;75.94238;927.2405;;;;
2021/11/01 09:37:29;;;;;;;3.7;2;;;;;;;12.93;76.26855;927.2558;;;;
2021/11/01 09:40:53;;;;;;;2.5;1.9;;;;;;;12.97;76.6875;927.2808;;;;
2021/11/01 09:42:22;;;;;;;1.9;1.5;;;;;;;12.94;76.62598;927.2548;;;;
2021/11/01 09:44:32;;;;;;;1.5;1.4;;;;;;;12.78;76.99707;927.2494;;;;
2021/11/01 09:46:57;;;;;;;2.3;1.6;;;;;;;12.58;78.45508;927.4105;;;;
2021/11/01 09:49:23;;;;;;;2.2;1.6;;;;;;;12.4;78.92676;927.3411;;;;
2021/11/01 09:51:50;;;;;;;1.7;1.5;;;;;;;12.62;77.52051;927.462;;;;
2021/11/01 09:54:25;;;;;;;1.9;1.7;;;;;;;12.7;77.15625;927.5055;;;;
2021/11/01 09:56:47;;;;;;;2.5;1.5;;;;;;;12.56;77.99316;927.4938;;;;
2021/11/01 09:59:12;;;;;;;1.9;1.7;;;;;;;12.56;78.25488;927.4387;;;;
2021/11/01 10:01:31;;;;;;;1.9;1.4;;;;;;;12.52;79.02832;927.4913;;;;
2021/11/01 10:03:56;;;;;;;1.5;1.4;;;;;;;12.53;78.58301;927.508;;;;
2021/11/01 10:06:23;;;;;;;2.4;1.3;;;;;;;12.6;78.13477;927.5826;;;;
2021/11/01 10:08:48;;;;;;;2.1;1.6;;;;;;;12.51;77.05273;927.5714;;;;
2021/11/01 10:11:13;;;;;;;1.4;1.3;;;;;;;12.49;77.33789;927.6083;;;;
2021/11/01 10:13:41;;;;;;;2.4;1.2;;;;;;;12.58;76.98438;927.6245;;;;
2021/11/01 10:18:32;;;;;;;1.4;1.1;;;;;;;12.32;78.01758;927.6233;;;;
2021/11/01 10:20:56;;;;;;;1.3;1;;;;;;;12.32;78.95801;927.6074;;;;
2021/11/01 10:23:23;;;;;;;1.2;1.1;;;;;;;12.39;78.48926;927.6526;;;;
2021/11/01 10:25:46;;;;;;;1.1;1;;;;;;;12.31;78.92188;927.6226;;;;
2021/11/01 10:28:11;;;;;;;1.4;1.3;;;;;;;12.14;80.24316;927.592;;;;
2021/11/01 10:30:37;;;;;;;2.6;1.2;;;;;;;12;82.15234;927.6312;;;;
2021/11/01 10:33:01;;;;;;;1.6;1.2;;;;;;;11.96;82.3291;927.5631;;;;
2021/11/01 10:35:29;;;;;;;2.1;1.4;;;;;;;11.91;82.61621;927.6395;;;;
2021/11/01 10:37:53;;;;;;;2.5;1.4;;;;;;;11.93;83.01074;927.5156;;;;
2021/11/01 10:40:18;;;;;;;2.9;1.7;;;;;;;11.95;83.73633;927.5481;;;;
2021/11/01 10:42:46;;;;;;;2.9;1.7;;;;;;;11.83;84.51465;927.4986;;;;
2021/11/01 10:45:24;;;;;;;2.1;1.7;;;;;;;11.87;84.96875;927.5052;;;;
2021/11/01 10:56:25;;;;;;;2.3;1.6;;;;;;;11.64;86.37793;927.5092;;;;
2021/11/01 11:12:05;;;;;;;2.7;1.8;;;;;;;11.56;88.68359;927.2659;;;;
2021/11/01 11:14:28;;;;;;;2.7;1.8;;;;;;;11.48;89.0332;927.2957;;;;
2021/11/01 11:18:12;;;;;;;2.4;1.9;;;;;;;11.47;89.27148;927.2511;;;;
2021/11/01 11:19:21;;;;;;;1.7;1.6;;;;;;;11.49;88.3291;927.1958;;;;
2021/11/01 11:22:03;;;;;;;1.6;1.3;;;;;;;11.28;88.96973;927.1501;;;;
2021/11/01 11:26:47;;;;;;;1.3;1.2;;;;;;;11.13;90.1748;927.2662;;;;
2021/11/01 11:31:38;;;;;;;1.6;1.5;;;;;;;11.05;91.46289;927.1707;;;;
2021/11/01 11:33:55;;;;;;;1.4;1.3;;;;;;;11.06;90.60742;927.247;;;;
2021/11/01 11:38:54;;;;;;;2.1;1.4;;;;;;;11.06;90.78809;927.2304;;;;
2021/11/01 11:42:07;;;;;;;1.5;1.4;;;;;;;10.99;90.27148;927.2634;;;;
2021/11/01 11:48:23;;;;;;;1.4;1.2;;;;;;;11.07;89.86426;927.2908;;;;
2021/11/01 11:50:43;;;;;;;1.2;1.1;;;;;;;11.03;89.16895;927.3326;;;;
2021/11/01 11:53:17;;;;;;;3.4;2.1;;;;;;;11.02;89.70605;927.3781;;;;
2021/11/01 11:55:42;;;;;;;2.3;1.7;;;;;;;10.85;89.94434;927.3572;;;;
2021/11/01 11:58:07;;;;;;;1.4;1.3;;;;;;;10.92;89.87988;927.3843;;;;
2021/11/01 12:00:32;;;;;;;2.1;1.2;;;;;;;10.85;90.10449;927.432;;;;
2021/11/01 12:02:57;;;;;;;2;1.6;;;;;;;10.79;90.43457;927.437;;;;
2021/11/01 12:05:26;;;;;;;1.5;1.4;;;;;;;10.73;90.33203;927.3675;;;;
2021/11/01 12:07:52;;;;;;;2.1;1.9;;;;;;;10.69;90.5625;927.3591;;;;
2021/11/01 12:10:31;;;;;;;3.1;2.2;;;;;;;10.74;90.79004;927.334;;;;
2021/11/01 12:12:57;;;;;;;1.5;1.4;;;;;;;10.84;89.36035;927.3668;;;;
2021/11/01 12:17:31;;;;;;;1.3;1.2;;;;;;;11.04;87.51465;927.37;;;;
2021/11/01 12:20:00;;;;;;;2.2;1.5;;;;;;;11.02;87.72852;927.367;;;;
2021/11/01 12:22:26;;;;;;;1.5;1.4;;;;;;;10.86;88.72363;927.3922;;;;
2021/11/01 12:24:56;;;;;;;2.7;1.4;;;;;;;11.08;89.11133;927.4293;;;;
2021/11/01 12:27:18;;;;;;;0.9;0.8;;;;;;;11;89.4834;927.3851;;;;
2021/11/01 12:29:44;;;;;;;2.5;1.2;;;;;;;10.9;90.54883;927.3367;;;;
2021/11/01 12:32:10;;;;;;;1.4;1.3;;;;;;;10.94;90.02051;927.3491;;;;
2021/11/01 12:34:37;;;;;;;3.6;2.2;;;;;;;10.75;90.36816;927.3284;;;;
2021/11/01 12:37:03;;;;;;;3.1;1.3;;;;;;;10.95;90.28516;927.3968;;;;
2021/11/01 12:39:29;;;;;;;1.6;1.5;;;;;;;10.98;89.8457;927.3973;;;;
2021/11/01 12:41:56;;;;;;;2.9;2.3;;;;;;;11.03;90.39551;927.3477;;;;
2021/11/01 12:45:20;;;;;;;1.4;1.2;;;;;;;11.16;89.49414;927.2651;;;;
2021/11/01 12:47:22;;;;;;;2.2;1.7;;;;;;;11.24;88.1748;927.2813;;;;
2021/11/01 12:58:46;;;;;;;4.7;3.3;;;;;;;11.39;88.10156;927.3138;;;;
2021/11/01 13:01:14;;;;;;;4;3.2;;;;;;;11.4;87.29102;927.2795;;;;
2021/11/01 13:03:37;;;;;;;4.6;3.7;;;;;;;11.38;87.15918;927.2916;;;;
2021/11/01 13:06:08;;;;;;;3.4;2.6;;;;;;;11.36;86.8584;927.2576;;;;
2021/11/01 13:08:31;;;;;;;2.3;1.8;;;;;;;11.36;86.64063;927.2784;;;;
2021/11/01 13:11:02;;;;;;;1.9;1.6;;;;;;;11.38;85.39941;927.2294;;;;
2021/11/01 13:18:14;;;;;;;0.6;0.6;;;;;;;11.21;86.01758;927.2837;;;;
2021/11/01 13:20:38;;;;;;;4.4;2.6;;;;;;;11.05;87.58594;927.3053;;;;
2021/11/01 13:23:04;;;;;;;6.8;4.1;;;;;;;11.02;88.15137;927.3535;;;;
2021/11/01 13:25:34;;;;;;;1.8;1.1;;;;;;;11;88.99414;927.2872;;;;
2021/11/01 13:28:12;;;;;;;2.5;2.3;;;;;;;10.99;89.83789;927.3367;;;;
2021/11/01 13:35:35;;;;;;;6.6;4.9;;;;;;;10.81;90.75977;927.3901;;;;
2021/11/01 13:37:39;;;;;;;4.3;3.8;;;;;;;10.73;91.1748;927.3731;;;;
2021/11/01 13:40:12;;;;;;;2.7;1.8;;;;;;;10.65;91.68555;927.3984;;;;
2021/11/01 13:42:37;;;;;;;1.5;0.9;;;;;;;10.54;92.67676;927.3856;;;;
2021/11/01 13:45:02;;;;;;;2.9;1.8;;;;;;;10.37;93.54297;927.3723;;;;
2021/11/01 13:47:27;;;;;;;2.6;1.9;;;;;;;10.39;93.67285;927.2408;;;;
2021/11/01 13:49:53;;;;;;;2.7;1.9;;;;;;;10.41;93.79102;927.193;;;;
2021/11/01 13:52:36;;;;;;;4.1;2.9;;;;;;;10.46;93.30957;927.2781;;;;
2021/11/01 13:54:50;;;;;;;2.8;2.1;;;;;;;10.6;92.3584;927.2418;;;;
2021/11/01 13:57:15;;;;;;;3.2;2.3;;;;;;;10.59;92.41406;927.3;;;;
2021/11/01 13:59:38;;;;;;;3;2.6;;;;;;;10.5;92.72754;927.2617;;;;
2021/11/01 14:02:10;;;;;;;3.4;2.3;;;;;;;10.5;92.61133;927.3055;;;;
2021/11/01 14:11:49;;;;;;;2;1.7;;;;;;;10.49;91.03418;927.2555;;;;
2021/11/01 14:14:57;;;;;;;3.4;2.4;;;;;;;10.57;90.62695;927.2174;;;;
2021/11/01 14:16:36;;;;;;;5.1;1.9;;;;;;;10.52;90.56055;927.2441;;;;
2021/11/01 14:19:05;;;;;;;2.8;1.9;;;;;;;10.47;90.26563;927.1585;;;;
2021/11/01 14:28:51;;;;;;;1.9;1.5;;;;;;;10.49;88.15723;927.2061;;;;
2021/11/01 14:31:19;;;;;;;2.1;1.3;;;;;;;10.45;87.83008;927.3003;;;;
2021/11/01 14:37:03;;;;;;;1.9;1.4;;;;;;;10.42;89.45508;927.3651;;;;
2021/11/01 15:03:52;;;;;;;13.1;9.3;;;;;;;10.04;90.14063;927.2747;;;;
2021/11/01 15:09:38;;;;;;;11.6;8.6;;;;;;;10.14;91.07422;927.2247;;;;
2021/11/01 15:12:14;;;;;;;8.4;4.8;;;;;;;10.16;89.83398;927.2977;;;;
2021/11/01 15:14:21;;;;;;;6.9;3.5;;;;;;;10.14;89.56836;927.2827;;;;
2021/11/01 15:16:45;;;;;;;3.2;2.3;;;;;;;10.01;89.23633;927.2358;;;;
2021/11/01 15:19:19;;;;;;;1.3;1.2;;;;;;;10.01;88.24023;927.2236;;;;
2021/11/01 15:21:32;;;;;;;1.1;0.9;;;;;;;9.88;88.06836;927.1696;;;;
2021/11/01 15:24:12;;;;;;;2.2;0.9;;;;;;;9.95;87.52246;927.1429;;;;
2021/11/01 15:29:15;;;;;;;1.5;0.9;;;;;;;10;86.86035;927.2253;;;;
2021/11/01 15:36:08;;;;;;;1.4;1.1;;;;;;;9.76;88.41992;927.1429;;;;
2021/11/01 15:38:31;;;;;;;1.4;1.3;;;;;;;9.69;88.74512;927.1458;;;;
2021/11/01 15:41:58;;;;;;;13.8;8;;;;;;;9.74;88.93848;927.0946;;;;
2021/11/01 16:17:19;;;;;;;11.1;6.4;;;;;;;9.1;91.49414;927.5643;;;;
2021/11/01 16:19:31;;;;;;;4.7;2.8;;;;;;;8.97;91.72949;927.6873;;;;
2021/11/01 16:21:52;;;;;;;3.9;2.4;;;;;;;8.97;91.79785;927.743;;;;
2021/11/01 16:24:18;;;;;;;3.8;2.6;;;;;;;8.99;92.45898;927.793;;;;
2021/11/01 16:26:43;;;;;;;41.6;17.9;;;;;;;8.71;92.62695;927.7089;;;;
2021/11/01 16:29:12;;;;;;;9.8;6.1;;;;;;;8.52;94.31348;927.7079;;;;
2021/11/01 16:31:45;;;;;;;13.5;7.8;;;;;;;8.65;94.04492;927.6264;;;;
2021/11/01 16:34:06;;;;;;;26.4;13.3;;;;;;;8.35;93.44824;927.6964;;;;
2021/11/01 16:36:40;;;;;;;30.5;16.6;;;;;;;8.16;93.65527;927.5989;;;;
2021/11/01 16:38:53;;;;;;;143.2;75;;;;;;;7.98;94.48047;927.6777;;;;
2021/11/01 16:41:16;;;;;;;14.2;8.4;;;;;;;8.28;94.59082;927.532;;;;
2021/11/01 16:43:41;;;;;;;14;8;;;;;;;8.48;93.31445;927.5547;;;;
2021/11/01 16:46:06;;;;;;;9.4;5;;;;;;;8.53;92.48535;927.5714;;;;
2021/11/01 16:48:31;;;;;;;72.4;29.1;;;;;;;8.53;92.05371;927.5492;;;;
2021/11/01 16:50:57;;;;;;;13.9;7.2;;;;;;;8.48;92.06641;927.5541;;;;
2021/11/01 16:53:22;;;;;;;64.3;27.5;;;;;;;8.42;91.21191;927.5413;;;;
2021/11/01 16:55:49;;;;;;;5.5;3.8;;;;;;;8.56;91.60645;927.5595;;;;
2021/11/01 16:58:19;;;;;;;11.8;6.4;;;;;;;8.66;90.98926;927.5931;;;;
2021/11/01 17:00:43;;;;;;;7.2;3.4;;;;;;;8.68;91.12988;927.5947;;;;
2021/11/01 17:03:23;;;;;;;5.4;2.7;;;;;;;8.71;89.72559;927.6287;;;;
2021/11/01 17:05:42;;;;;;;21.7;11.5;;;;;;;8.63;87.77832;927.5637;;;;
2021/11/01 17:08:44;;;;;;;19.5;11.1;;;;;;;8.62;89.39063;927.6708;;;;
2021/11/01 17:11:01;;;;;;;3.9;2.8;;;;;;;8.62;89.61719;927.5859;;;;
2021/11/01 17:22:32;;;;;;;4.7;2.8;;;;;;;8.75;88.9502;927.666;;;;
2021/11/01 17:24:57;;;;;;;3.7;2.8;;;;;;;8.68;88.4375;927.6914;;;;
2021/11/01 17:27:46;;;;;;;1.8;1.5;;;;;;;8.74;88.94824;927.6985;;;;
2021/11/01 17:30:43;;;;;;;1.8;1.3;;;;;;;8.61;89.26172;927.642;;;;
2021/11/01 17:35:12;;;;;;;1.4;0.9;;;;;;;8.12;90.70605;927.5934;;;;
2021/11/01 17:37:06;;;;;;;1.1;1;;;;;;;8.25;90.74414;927.6453;;;;
2021/11/01 18:52:05;;;;;;;23.3;12.6;;;;;;;7.42;94.27734;927.5662;;;;
2021/11/01 18:54:27;;;;;;;5.5;3.5;;;;;;;7.45;94.68066;927.6464;;;;
2021/11/01 18:56:52;;;;;;;11.9;7.9;;;;;;;7.58;94.2207;927.5795;;;;
2021/11/01 18:59:17;;;;;;;5;2.7;;;;;;;7.72;94.0918;927.5461;;;;
2021/11/01 19:01:43;;;;;;;2.7;1.5;;;;;;;7.53;93.72168;927.558;;;;
2021/11/01 19:04:12;;;;;;;1.8;1.3;;;;;;;7.43;93.99609;927.4554;;;;
2021/11/01 19:06:58;;;;;;;3;1.7;;;;;;;7.42;94.43652;927.5369;;;;
2021/11/01 19:09:14;;;;;;;3.5;1.9;;;;;;;7.32;94.85645;927.4753;;;;
2021/11/01 20:04:45;;;;;;;7.9;5.5;;;;;;;7.34;96.11816;926.9861;;;;
2021/11/01 20:08:12;;;;;;;40.8;18.1;;;;;;;7.32;95.33301;926.9084;;;;
2021/11/01 20:10:07;;;;;;;12;7.7;;;;;;;7.42;95.19629;926.867;;;;
2021/11/01 20:13:46;;;;;;;19.3;9.8;;;;;;;7.37;94.77637;926.8911;;;;
2021/11/01 20:14:32;;;;;;;7;4.4;;;;;;;7.23;94.82324;926.8772;;;;
2021/11/01 21:25:01;;;;;;;6;4.1;;;;;;;7.36;94.18262;926.3669;;;;
2021/11/01 21:27:15;;;;;;;2.7;2;;;;;;;7.3;93.10547;926.2916;;;;
2021/11/01 21:29:40;;;;;;;1.1;0.6;;;;;;;7.16;91.35254;926.287;;;;
2021/11/01 21:32:05;;;;;;;0.7;0.6;;;;;;;7.11;91.74121;926.2932;;;;
2021/11/01 21:34:32;;;;;;;1.1;0.6;;;;;;;7.14;91.86914;926.1936;;;;
2021/11/01 21:36:55;;;;;;;0.7;0.7;;;;;;;7.15;92.17676;926.1802;;;;
2021/11/01 21:40:02;;;;;;;2.9;2;;;;;;;7.19;92.53809;926.2522;;;;
2021/11/01 21:42:27;;;;;;;2.4;1.2;;;;;;;6.88;91.49609;926.2257;;;;
2021/11/01 21:44:52;;;;;;;1.2;0.8;;;;;;;6.94;91.75879;926.1926;;;;
2021/11/01 21:47:17;;;;;;;2.2;1.3;;;;;;;6.92;90.75684;926.1602;;;;
2021/11/01 21:49:42;;;;;;;1.8;1.1;;;;;;;7.03;91.29102;926.1742;;;;
2021/11/01 21:52:08;;;;;;;0.9;0.8;;;;;;;7.15;91.38379;926.1484;;;;
2021/11/01 21:54:35;;;;;;;3.6;1.5;;;;;;;7.17;91.94531;926.177;;;;
2021/11/01 21:57:02;;;;;;;2.2;1.5;;;;;;;7.26;92.15723;926.1015;;;;
2021/11/01 21:59:42;;;;;;;3.7;2;;;;;;;7.08;93.05664;926.0992;;;;
2021/11/01 22:18:59;;;;;;;1.6;1.4;;;;;;;7.34;91.87988;925.8744;;;;
2021/11/01 22:21:14;;;;;;;1.8;1.3;;;;;;;7.24;92.45898;925.8758;;;;
2021/11/01 22:23:44;;;;;;;1.8;1.7;;;;;;;7.27;93.34863;925.8886;;;;
2021/11/01 22:26:05;;;;;;;1.6;1.5;;;;;;;7.31;92.74512;925.7999;;;;
2021/11/01 22:33:34;;;;;;;3.2;1.7;;;;;;;7.27;93.22461;925.7975;;;;
2021/11/01 22:38:26;;;;;;;2.2;2;;;;;;;7.18;94.24707;925.8715;;;;
2021/11/01 22:40:36;;;;;;;3.5;2.4;;;;;;;7.19;94.29395;925.8976;;;;
2021/11/01 22:43:03;;;;;;;3.6;2.5;;;;;;;7.13;94.71289;925.8928;;;;
2021/11/01 22:45:26;;;;;;;3;2.3;;;;;;;7.2;94.32813;925.9048;;;;
2021/11/01 22:48:16;;;;;;;5.2;2.8;;;;;;;7.22;94.27734;925.8719;;;;
2021/11/01 22:57:29;;;;;;;3.2;2.3;;;;;;;6.97;94.0752;925.9222;;;;
2021/11/01 22:59:55;;;;;;;3.8;2.7;;;;;;;6.87;95.62695;925.8807;;;;
2021/11/01 23:02:29;;;;;;;3.5;2.3;;;;;;;6.95;95.29395;925.8833;;;;
2021/11/01 23:04:50;;;;;;;2.7;2;;;;;;;6.96;95.07129;925.8597;;;;
2021/11/01 23:31:32;;;;;;;1.2;1.1;;;;;;;7.11;93.65137;925.6877;;;;
2021/11/01 23:33:48;;;;;;;1.5;1;;;;;;;6.86;93.92871;925.6995;;;;
2021/11/01 23:36:13;;;;;;;1.3;1.2;;;;;;;6.93;94.70996;925.6926;;;;
2021/11/01 23:38:38;;;;;;;1.4;1.1;;;;;;;7.09;94.21582;925.611;;;;
2021/11/01 23:41:03;;;;;;;3.8;1.6;;;;;;;7.23;93.71484;925.6265;;;;
2021/11/01 23:43:29;;;;;;;2.2;1.3;;;;;;;7.18;92.71582;925.6039;;;;
2021/11/01 23:45:54;;;;;;;2.1;1.3;;;;;;;7.23;92.86328;925.5821;;;;
2021/11/01 23:48:19;;;;;;;1.8;1.2;;;;;;;7.36;92.56348;925.4975;;;;
2021/11/01 23:50:45;;;;;;;1.2;1;;;;;;;7.35;92.16309;925.522;;;;
2021/11/01 23:53:11;;;;;;;0.8;0.6;;;;;;;7.35;91.80078;925.5101;;;;
2021/11/01 23:55:36;;;;;;;1.5;1;;;;;;;7.38;91.81738;925.5941;;;;
2021/11/01 23:58:01;;;;;;;2.4;1.3;;;;;;;7.35;92.26563;925.6124;;;;
